Time;durP1;ratioP1;P1;durP2;ratioP2;P2;SDS_P1;SDS_P2;PMS_P1;PMS_P2;Temp;Humidity;BMP_temperature;BMP_pressure;BME280_temperature;BME280_humidity;BME280_pressure;Samples;Min_cycle;Max_cycle;Signal;HPM_P1;HPM_P2
2022/01/07 00:00:12;;;;;;;18.95;7.25;;;;;;;2.78;79.82;101401.06;5091884;28;20027;-83
2022/01/07 00:02:38;;;;;;;12.48;7.05;;;;;;;2.77;80.29;101398.53;5090337;28;20050;-82
2022/01/07 00:05:03;;;;;;;12.60;7.55;;;;;;;2.80;79.83;101398.41;5088580;28;20028;-83
2022/01/07 00:07:28;;;;;;;15.27;7.10;;;;;;;2.78;80.22;101395.03;5089785;28;20024;-82
2022/01/07 00:09:54;;;;;;;15.05;7.95;;;;;;;2.77;79.69;101393.31;5106860;28;20028;-82
2022/01/07 00:12:22;;;;;;;15.52;7.22;;;;;;;2.75;80.08;101374.34;5091011;28;20446;-82
2022/01/07 00:14:47;;;;;;;17.55;7.63;;;;;;;2.78;80.39;101387.22;5091485;28;20032;-82
2022/01/07 00:17:13;;;;;;;17.02;7.22;;;;;;;2.76;81.02;101376.88;5081510;28;20032;-82
2022/01/07 00:19:38;;;;;;;17.20;6.80;;;;;;;2.78;80.78;101369.03;5089552;28;20035;-82
2022/01/07 00:22:04;;;;;;;17.35;6.78;;;;;;;2.75;81.46;101371.75;5090003;28;20429;-82
2022/01/07 00:24:29;;;;;;;15.30;6.40;;;;;;;2.74;80.98;101357.91;5088546;28;20028;-82
2022/01/07 00:26:54;;;;;;;14.70;6.75;;;;;;;2.76;81.92;101361.31;5089720;28;20030;-82
2022/01/07 00:29:19;;;;;;;14.38;6.20;;;;;;;2.73;80.66;101344.97;5089068;28;20020;-82
2022/01/07 00:31:45;;;;;;;12.57;6.03;;;;;;;2.75;81.24;101361.34;5090013;28;20048;-82
2022/01/07 00:34:10;;;;;;;13.82;6.32;;;;;;;2.72;81.43;101348.47;5090751;28;20114;-82
2022/01/07 00:36:36;;;;;;;13.35;6.03;;;;;;;2.71;81.40;101346.78;5089105;28;20032;-83
2022/01/07 00:39:01;;;;;;;12.88;6.78;;;;;;;2.71;81.96;101341.56;5089556;28;20511;-82
2022/01/07 00:41:26;;;;;;;16.40;6.45;;;;;;;2.67;82.16;101335.63;5105910;28;20020;-82
2022/01/07 00:43:52;;;;;;;16.92;6.63;;;;;;;2.67;83.42;101335.63;5090555;28;20520;-82
2022/01/07 00:46:19;;;;;;;16.20;6.35;;;;;;;2.65;82.82;101321.00;5078047;28;20103;-83
2022/01/07 00:48:44;;;;;;;18.95;6.68;;;;;;;2.65;83.11;101321.00;5068633;28;20025;-82
2022/01/07 00:51:10;;;;;;;14.82;6.38;;;;;;;2.65;82.25;101318.41;5070384;28;20070;-83
2022/01/07 00:53:35;;;;;;;11.98;6.05;;;;;;;2.59;82.47;101306.47;5071503;28;20329;-82
2022/01/07 00:56:00;;;;;;;13.80;6.40;;;;;;;2.62;82.52;101310.72;5090489;28;20744;-82
2022/01/07 00:58:26;;;;;;;17.27;6.45;;;;;;;2.60;82.64;101299.53;5088168;28;20427;-82
2022/01/07 01:00:51;;;;;;;14.43;6.10;;;;;;;2.61;82.64;101298.63;5089264;28;20023;-82
2022/01/07 01:03:16;;;;;;;14.48;6.32;;;;;;;2.57;82.86;101287.50;5090353;28;20031;-83
2022/01/07 01:05:44;;;;;;;15.80;6.68;;;;;;;2.58;82.78;101286.59;5089105;28;20024;-82
2022/01/07 01:08:10;;;;;;;16.15;6.20;;;;;;;2.57;83.37;101279.69;5090239;28;20021;-83
2022/01/07 01:10:35;;;;;;;18.67;6.10;;;;;;;2.58;82.92;101273.59;5088339;28;20073;-82
2022/01/07 01:13:01;;;;;;;12.75;5.40;;;;;;;2.62;83.08;101287.34;5088841;28;20028;-83
2022/01/07 01:15:27;;;;;;;11.48;5.35;;;;;;;2.56;82.71;101269.38;5069849;28;20461;-82
2022/01/07 01:17:54;;;;;;;12.80;5.10;;;;;;;2.61;82.23;101276.09;5070026;28;20028;-82
2022/01/07 01:20:22;;;;;;;14.68;5.60;;;;;;;2.59;82.36;101270.09;5084594;28;20020;-82
2022/01/07 01:22:48;;;;;;;14.32;5.43;;;;;;;2.62;82.46;101269.16;5070130;28;20473;-82
2022/01/07 01:25:14;;;;;;;16.08;5.78;;;;;;;2.62;81.87;101263.97;5069644;28;20052;-82
2022/01/07 01:27:40;;;;;;;13.13;5.20;;;;;;;2.59;82.15;101244.13;5073752;28;20229;-82
2022/01/07 01:30:08;;;;;;;13.13;4.95;;;;;;;2.60;81.98;101251.03;5089909;28;20024;-82
2022/01/07 01:32:34;;;;;;;12.38;4.63;;;;;;;2.63;82.25;101250.06;5089088;28;20055;-83
2022/01/07 01:35:00;;;;;;;11.50;4.80;;;;;;;2.62;81.43;101253.56;5089722;28;20024;-82
2022/01/07 01:37:25;;;;;;;16.35;5.22;;;;;;;2.59;81.89;101233.75;5087893;28;20035;-82
2022/01/07 01:39:51;;;;;;;13.57;5.55;;;;;;;2.63;82.09;101234.50;5088459;28;20097;-82
2022/01/07 01:42:16;;;;;;;11.25;4.97;;;;;;;2.65;81.56;101237.88;5081398;28;20488;-82
2022/01/07 01:44:42;;;;;;;15.07;5.50;;;;;;;2.64;81.94;101231.00;5068455;28;20165;-82
2022/01/07 01:47:07;;;;;;;12.48;4.97;;;;;;;2.67;81.41;101225.69;5075028;28;20099;-83
2022/01/07 01:49:33;;;;;;;14.05;4.72;;;;;;;2.68;81.62;101224.78;5075943;28;20051;-82
2022/01/07 01:52:00;;;;;;;11.85;4.05;;;;;;;2.70;81.59;101215.19;5087735;28;20047;-82
2022/01/07 01:54:25;;;;;;;10.35;4.43;;;;;;;2.67;81.44;101204.91;5086826;28;20116;-82
2022/01/07 01:56:51;;;;;;;13.73;4.22;;;;;;;2.69;80.83;101197.91;5088237;28;20111;-82
2022/01/07 01:59:27;;;;;;;10.23;4.13;;;;;;;2.68;80.72;101197.06;5088634;28;20016;-82
2022/01/07 02:01:53;;;;;;;9.55;4.03;;;;;;;2.74;80.87;101211.56;5087097;28;20032;-82
2022/01/07 02:04:18;;;;;;;14.45;4.15;;;;;;;2.75;80.44;101205.47;5067003;28;20024;-82
2022/01/07 02:06:44;;;;;;;9.90;3.88;;;;;;;2.74;81.31;101206.38;5068617;28;20028;-82
2022/01/07 02:09:09;;;;;;;11.27;3.70;;;;;;;2.77;81.02;101207.09;5066973;28;20492;-82
2022/01/07 02:11:34;;;;;;;12.43;4.22;;;;;;;2.76;81.01;101195.03;5070116;28;20376;-83
2022/01/07 02:14:00;;;;;;;10.55;3.70;;;;;;;2.76;81.56;101188.97;5079300;28;20480;-82
2022/01/07 02:16:26;;;;;;;10.25;3.72;;;;;;;2.78;81.32;101207.94;5076338;28;20480;-82
2022/01/07 02:18:52;;;;;;;12.02;3.72;;;;;;;2.77;81.44;101195.88;5071984;28;20400;-82
2022/01/07 02:21:17;;;;;;;11.13;3.60;;;;;;;2.74;81.29;101191.63;5105539;28;20080;-82
2022/01/07 02:23:43;;;;;;;10.00;3.20;;;;;;;2.80;81.48;101206.16;5092595;28;20043;-83
2022/01/07 02:26:10;;;;;;;11.80;3.40;;;;;;;2.74;82.69;101186.44;5093652;28;20032;-83
2022/01/07 02:28:36;;;;;;;11.10;3.72;;;;;;;2.75;82.94;101184.69;5092543;28;20027;-83
2022/01/07 02:31:02;;;;;;;10.63;3.53;;;;;;;2.73;84.46;101184.75;5091393;28;20032;-82
2022/01/07 02:33:28;;;;;;;10.48;3.92;;;;;;;2.66;84.98;101178.06;5092843;28;20093;-83
2022/01/07 02:35:54;;;;;;;10.48;3.78;;;;;;;2.67;85.21;101176.31;5090084;28;20166;-83
2022/01/07 02:38:22;;;;;;;10.85;3.80;;;;;;;2.66;86.29;101187.63;5076599;28;20024;-83
2022/01/07 02:40:47;;;;;;;11.52;4.15;;;;;;;2.56;86.64;101170.69;5071957;28;20032;-82
2022/01/07 02:43:13;;;;;;;11.27;3.70;;;;;;;2.57;87.13;101172.38;5072808;28;20039;-83
2022/01/07 02:45:38;;;;;;;8.45;3.85;;;;;;;2.54;87.62;101173.31;5072296;28;20020;-82
2022/01/07 02:48:04;;;;;;;11.00;3.88;;;;;;;2.53;87.71;101176.81;5073123;28;20032;-83
2022/01/07 02:50:36;;;;;;;12.45;4.00;;;;;;;2.51;88.48;101174.28;5071011;28;20020;-82
2022/01/07 02:53:04;;;;;;;9.23;4.35;;;;;;;2.51;88.72;101174.28;5076566;28;20044;-83
2022/01/07 02:55:30;;;;;;;13.27;4.65;;;;;;;2.45;88.86;101169.31;5091352;28;20020;-82
2022/01/07 02:57:56;;;;;;;16.17;4.35;;;;;;;2.40;89.35;101159.97;5092138;28;20038;-83
2022/01/07 03:00:23;;;;;;;11.35;4.07;;;;;;;2.38;89.25;101162.63;5088919;28;20040;-83
2022/01/07 03:02:49;;;;;;;13.45;4.47;;;;;;;2.36;90.10;101154.03;5075262;28;20027;-83
2022/01/07 03:05:16;;;;;;;14.85;4.50;;;;;;;2.30;90.99;101149.06;5086275;28;20044;-83
2022/01/07 03:07:42;;;;;;;16.20;4.30;;;;;;;2.34;90.93;101152.41;5068940;28;20031;-83
2022/01/07 03:10:10;;;;;;;11.25;4.30;;;;;;;2.27;90.90;101146.56;5079111;28;20036;-83
2022/01/07 03:12:36;;;;;;;8.77;4.20;;;;;;;2.24;91.81;101154.47;5090877;28;20488;-82
2022/01/07 03:15:04;;;;;;;10.55;4.25;;;;;;;2.19;92.14;101146.00;5072085;28;20066;-82
2022/01/07 03:17:30;;;;;;;11.65;4.30;;;;;;;2.16;91.68;101141.75;5088263;28;20020;-84
2022/01/07 03:19:55;;;;;;;10.30;4.78;;;;;;;2.05;92.50;101133.50;5089298;28;20476;-83
2022/01/07 03:22:20;;;;;;;9.23;4.53;;;;;;;2.02;92.34;101124.97;5089433;28;20112;-83
2022/01/07 03:24:45;;;;;;;10.43;4.40;;;;;;;2.02;93.14;101133.59;5091257;28;20369;-83
2022/01/07 03:27:14;;;;;;;13.57;5.03;;;;;;;1.96;93.62;101118.22;5090654;28;20391;-83
2022/01/07 03:29:39;;;;;;;17.25;4.93;;;;;;;1.99;93.20;101127.66;5090209;28;20028;-82
2022/01/07 03:32:05;;;;;;;12.45;4.78;;;;;;;1.93;93.66;101113.13;5091544;28;20063;-83
2022/01/07 03:34:31;;;;;;;11.30;4.70;;;;;;;1.94;93.78;101124.38;5089865;28;20436;-84
2022/01/07 03:36:56;;;;;;;18.00;5.13;;;;;;;1.92;94.07;101121.81;5076723;28;20024;-84
2022/01/07 03:39:22;;;;;;;12.93;5.03;;;;;;;1.93;94.82;101122.66;5087168;28;20107;-83
2022/01/07 03:41:47;;;;;;;15.50;5.55;;;;;;;1.88;94.63;101115.03;5071809;28;20495;-83
2022/01/07 03:44:12;;;;;;;14.95;5.13;;;;;;;1.88;94.95;101110.69;5070559;28;20101;-84
2022/01/07 03:46:38;;;;;;;12.43;5.13;;;;;;;1.89;94.92;101117.59;5078010;28;20119;-83
2022/01/07 03:49:04;;;;;;;12.65;5.28;;;;;;;1.88;95.58;101115.88;5070183;28;20017;-83
2022/01/07 03:51:29;;;;;;;11.38;5.18;;;;;;;1.86;95.45;101104.72;5071367;28;20055;-84
2022/01/07 03:53:54;;;;;;;12.15;5.55;;;;;;;1.89;95.79;101096.84;5071654;28;20116;-84
2022/01/07 03:56:20;;;;;;;9.95;5.53;;;;;;;1.91;95.99;101099.38;5069273;28;20540;-84
2022/01/07 03:58:46;;;;;;;14.85;5.80;;;;;;;1.89;95.46;101102.03;5070442;28;20028;-84
2022/01/07 04:01:12;;;;;;;14.00;5.55;;;;;;;1.89;96.80;101095.97;5071594;28;20035;-84
2022/01/07 04:03:37;;;;;;;13.82;5.50;;;;;;;1.91;96.73;101093.34;5080102;28;20035;-83
2022/01/07 04:06:03;;;;;;;11.40;5.53;;;;;;;1.89;96.47;101081.25;5090403;28;20031;-84
2022/01/07 04:08:29;;;;;;;12.93;5.50;;;;;;;1.87;97.14;101079.63;5091365;28;20082;-83
2022/01/07 04:10:55;;;;;;;12.13;5.93;;;;;;;1.90;96.81;101076.91;5091476;28;20048;-84
2022/01/07 04:13:20;;;;;;;8.50;5.35;;;;;;;1.88;97.10;101079.56;5101195;28;20055;-83
2022/01/07 04:15:45;;;;;;;8.23;5.07;;;;;;;1.91;96.85;101077.78;5072956;28;20031;-83
2022/01/07 04:18:14;;;;;;;10.93;5.75;;;;;;;1.95;96.37;101079.34;5089847;28;20548;-83
2022/01/07 04:20:39;;;;;;;11.90;5.43;;;;;;;1.91;97.56;101076.03;5086852;28;20104;-83
2022/01/07 04:23:07;;;;;;;8.23;5.68;;;;;;;1.94;97.39;101077.66;5088806;28;20541;-83
2022/01/07 04:25:33;;;;;;;11.65;6.00;;;;;;;1.97;97.61;101077.56;5089982;28;20035;-83
2022/01/07 04:28:02;;;;;;;11.52;6.28;;;;;;;1.92;98.12;101072.53;5090903;28;20198;-83
2022/01/07 04:30:31;;;;;;;8.90;5.88;;;;;;;1.97;98.62;101073.22;5087745;28;20612;-83
2022/01/07 04:32:56;;;;;;;12.63;6.20;;;;;;;1.98;97.91;101082.69;5090216;28;20048;-83
2022/01/07 04:35:23;;;;;;;11.57;6.28;;;;;;;1.97;98.34;101073.22;5089417;28;20039;-83
2022/01/07 04:37:50;;;;;;;12.13;6.60;;;;;;;2.03;98.67;101078.22;5105421;28;20105;-83
2022/01/07 04:40:16;;;;;;;9.75;6.63;;;;;;;2.03;98.94;101085.16;5077855;28;20025;-83
2022/01/07 04:42:42;;;;;;;9.82;6.57;;;;;;;2.06;98.67;101085.88;5068695;28;20059;-84
2022/01/07 04:45:10;;;;;;;12.85;6.75;;;;;;;2.10;98.26;101078.84;5068354;28;20064;-84
2022/01/07 04:47:36;;;;;;;12.60;7.38;;;;;;;2.11;99.27;101075.34;5068170;28;20017;-83
2022/01/07 04:50:08;;;;;;;12.32;7.07;;;;;;;2.15;98.91;101079.53;5069974;28;20032;-84
2022/01/07 04:52:34;;;;;;;15.50;6.68;;;;;;;2.18;99.16;101080.25;5068776;28;20116;-84
2022/01/07 04:54:59;;;;;;;14.02;7.50;;;;;;;2.20;99.55;101075.00;5069839;28;20024;-84
2022/01/07 04:57:24;;;;;;;14.43;7.38;;;;;;;2.19;99.16;101065.53;5087460;28;20028;-84
2022/01/07 04:59:50;;;;;;;11.18;7.20;;;;;;;2.24;99.23;101070.56;5090211;28;20020;-83
2022/01/07 05:02:19;;;;;;;13.32;7.47;;;;;;;2.20;99.04;101055.09;5085249;28;20024;-84
2022/01/07 05:04:45;;;;;;;12.27;7.35;;;;;;;2.27;99.15;101060.91;5074852;28;20045;-84
2022/01/07 05:07:10;;;;;;;13.98;8.00;;;;;;;2.28;99.09;101067.78;5068593;28;20476;-82
2022/01/07 05:09:35;;;;;;;11.75;8.38;;;;;;;2.29;99.85;101056.50;5068318;28;20062;-83
2022/01/07 05:12:02;;;;;;;12.07;8.10;;;;;;;2.30;99.47;101049.56;5069231;28;20123;-82
2022/01/07 05:14:27;;;;;;;12.45;8.23;;;;;;;2.29;99.35;101048.72;5089389;28;20023;-82
2022/01/07 05:16:52;;;;;;;13.82;8.38;;;;;;;2.32;99.55;101043.41;5077954;28;20024;-82
2022/01/07 05:19:18;;;;;;;15.50;8.50;;;;;;;2.33;100.00;101039.91;5068698;28;20510;-83
2022/01/07 05:21:43;;;;;;;12.95;8.50;;;;;;;2.35;99.29;101034.66;5069506;28;20476;-82
2022/01/07 05:24:09;;;;;;;17.05;9.75;;;;;;;2.38;100.00;101048.38;5076089;28;20067;-83
2022/01/07 05:26:34;;;;;;;18.10;9.15;;;;;;;2.40;100.00;101056.09;5087245;28;20047;-82
2022/01/07 05:29:00;;;;;;;15.07;9.27;;;;;;;2.39;99.96;101044.88;5089005;28;20032;-83
2022/01/07 05:31:26;;;;;;;13.75;9.23;;;;;;;2.44;100.00;101048.16;5068609;28;20044;-82
2022/01/07 05:33:53;;;;;;;13.23;9.20;;;;;;;2.44;100.00;101045.56;5088146;28;20024;-83
2022/01/07 05:36:22;;;;;;;14.45;9.25;;;;;;;2.46;100.00;101051.56;5069173;28;20024;-82
2022/01/07 05:38:48;;;;;;;14.05;8.88;;;;;;;2.46;100.00;101043.75;5069229;28;20619;-82
2022/01/07 05:41:14;;;;;;;14.73;9.27;;;;;;;2.49;100.00;101035.84;5068431;28;20099;-84
2022/01/07 05:43:40;;;;;;;14.35;9.63;;;;;;;2.53;100.00;101046.13;5068995;28;20241;-82
2022/01/07 05:46:08;;;;;;;14.57;9.82;;;;;;;2.53;100.00;101041.78;5087284;28;20116;-82
2022/01/07 05:48:33;;;;;;;16.05;9.65;;;;;;;2.56;99.85;101041.66;5087146;28;20412;-84
2022/01/07 05:50:59;;;;;;;14.68;10.25;;;;;;;2.57;99.70;101030.38;5087854;28;20024;-82
2022/01/07 05:53:24;;;;;;;12.40;9.90;;;;;;;2.57;100.00;101027.78;5088975;28;20024;-82
2022/01/07 05:55:50;;;;;;;20.17;10.95;;;;;;;2.61;100.00;101034.53;5088934;28;20028;-83
2022/01/07 05:58:15;;;;;;;19.35;10.90;;;;;;;2.60;100.00;101022.47;5089029;28;20105;-83
2022/01/07 06:00:40;;;;;;;16.65;10.52;;;;;;;2.62;99.89;101015.44;5088736;28;20464;-83
2022/01/07 06:03:06;;;;;;;15.30;11.15;;;;;;;2.66;100.00;101021.38;5083107;28;20024;-83
2022/01/07 06:05:31;;;;;;;18.25;9.90;;;;;;;2.64;100.00;101021.44;5069099;28;20139;-82
2022/01/07 06:07:56;;;;;;;14.90;10.25;;;;;;;2.66;100.00;101016.19;5068586;28;20024;-83
2022/01/07 06:10:22;;;;;;;13.98;10.18;;;;;;;2.68;99.78;101024.75;5067661;28;20024;-83
2022/01/07 06:12:47;;;;;;;14.20;10.73;;;;;;;2.71;99.94;101030.69;5070654;28;20025;-83
2022/01/07 06:15:12;;;;;;;18.63;10.77;;;;;;;2.70;100.00;101034.19;5088127;28;20045;-83
2022/01/07 06:17:38;;;;;;;17.95;11.00;;;;;;;2.72;100.00;101031.53;5073986;28;20103;-82
2022/01/07 06:20:04;;;;;;;15.63;10.15;;;;;;;2.74;100.00;101034.91;5088722;28;20124;-82
2022/01/07 06:22:30;;;;;;;20.83;10.50;;;;;;;2.78;100.00;101039.91;5088260;28;20032;-82
2022/01/07 06:24:55;;;;;;;17.92;10.90;;;;;;;2.77;100.00;101034.78;5089677;28;20092;-82
2022/01/07 06:27:20;;;;;;;19.58;11.15;;;;;;;2.78;99.74;101031.28;5087820;28;20526;-82
2022/01/07 06:29:46;;;;;;;17.88;10.35;;;;;;;2.80;100.00;101035.53;5082412;28;20048;-82
2022/01/07 06:32:14;;;;;;;16.77;10.80;;;;;;;2.83;100.00;101039.78;5069236;28;20052;-83
2022/01/07 06:34:40;;;;;;;19.63;11.80;;;;;;;2.86;100.00;101034.47;5069277;28;20028;-83
2022/01/07 06:37:06;;;;;;;21.27;11.30;;;;;;;2.84;100.00;101023.28;5072984;28;20025;-83
2022/01/07 06:39:32;;;;;;;17.13;10.80;;;;;;;2.85;99.68;101032.75;5068587;28;20330;-83
2022/01/07 06:41:59;;;;;;;17.08;11.10;;;;;;;2.89;100.00;101033.50;5068592;28;20024;-82
2022/01/07 06:44:25;;;;;;;16.00;10.68;;;;;;;2.91;100.00;101037.72;5067918;28;20024;-82
2022/01/07 06:46:51;;;;;;;18.77;11.27;;;;;;;2.93;99.90;101037.66;5067951;28;20358;-83
2022/01/07 06:49:16;;;;;;;20.65;11.20;;;;;;;2.93;99.50;101030.72;5068634;28;20031;-82
2022/01/07 06:51:43;;;;;;;18.15;11.57;;;;;;;2.95;99.81;101041.88;5067910;28;20499;-83
2022/01/07 06:54:11;;;;;;;17.58;11.65;;;;;;;2.95;99.73;101039.28;5074146;28;20059;-82
2022/01/07 06:56:41;;;;;;;20.23;11.35;;;;;;;2.98;100.00;101036.56;5066522;28;20109;-82
2022/01/07 06:59:07;;;;;;;18.73;11.55;;;;;;;2.99;99.81;101034.81;5087391;28;20029;-83
2022/01/07 07:01:33;;;;;;;20.67;11.13;;;;;;;3.02;99.93;101024.28;5089516;28;20114;-82
2022/01/07 07:03:59;;;;;;;17.25;11.55;;;;;;;2.98;99.20;101020.97;5108112;28;20123;-83
2022/01/07 07:06:24;;;;;;;20.75;11.63;;;;;;;3.03;99.43;101031.19;5091316;28;20126;-83
2022/01/07 07:08:49;;;;;;;20.45;11.30;;;;;;;3.06;99.93;101031.91;5092571;28;20021;-82
2022/01/07 07:11:15;;;;;;;23.48;11.98;;;;;;;3.07;99.19;101038.78;5079422;28;20035;-83
2022/01/07 07:13:40;;;;;;;17.55;11.55;;;;;;;3.11;99.50;101040.34;5091131;28;20028;-83
2022/01/07 07:16:06;;;;;;;17.17;11.73;;;;;;;3.11;99.09;101034.31;5090734;28;20024;-83
2022/01/07 07:18:31;;;;;;;20.40;12.13;;;;;;;3.17;99.68;101041.00;5083327;28;20120;-83
2022/01/07 07:20:58;;;;;;;18.60;11.85;;;;;;;3.14;99.67;101034.19;5070647;28;20021;-82
2022/01/07 07:23:23;;;;;;;19.38;11.95;;;;;;;3.18;99.29;101045.31;5072074;28;20025;-81
2022/01/07 07:25:49;;;;;;;16.95;11.18;;;;;;;3.18;99.50;101045.31;5076937;28;20510;-84
2022/01/07 07:28:15;;;;;;;17.88;11.40;;;;;;;3.20;99.04;101030.50;5088181;28;20092;-82
2022/01/07 07:30:42;;;;;;;21.63;11.80;;;;;;;3.22;99.19;101041.69;5081340;28;20020;-82
2022/01/07 07:33:30;;;;;;;20.42;12.10;;;;;;;3.25;99.08;101033.78;5082859;28;20044;-84
2022/01/07 07:38:44;;;;;;;23.38;11.98;;;;;;;3.28;99.06;101046.66;5080628;28;20043;-84
2022/01/07 07:41:12;;;;;;;18.98;12.63;;;;;;;3.31;99.15;101041.31;5083165;28;20112;-84
2022/01/07 07:43:38;;;;;;;20.42;12.10;;;;;;;3.32;99.22;101038.66;5083941;28;20050;-84
2022/01/07 07:46:05;;;;;;;23.05;12.00;;;;;;;3.31;99.11;101026.56;5079622;28;20048;-82
2022/01/07 07:48:32;;;;;;;18.35;12.00;;;;;;;3.35;98.79;101019.47;5079069;28;20095;-81
2022/01/07 07:50:57;;;;;;;23.15;12.35;;;;;;;3.36;98.97;101023.78;5081154;28;20060;-84
2022/01/07 07:53:24;;;;;;;20.73;11.43;;;;;;;3.37;99.14;101025.47;5080278;28;20439;-83
2022/01/07 07:55:53;;;;;;;18.75;11.63;;;;;;;3.38;98.66;101028.00;5079754;28;20137;-84
2022/01/07 07:58:23;;;;;;;21.23;12.05;;;;;;;3.39;99.29;101034.03;5083921;28;20020;-84
2022/01/07 08:00:49;;;;;;;21.73;12.60;;;;;;;3.40;98.66;101040.94;5085577;28;20095;-84
2022/01/07 08:03:15;;;;;;;18.55;11.40;;;;;;;3.45;98.91;101041.59;5096865;28;21126;-84
2022/01/07 08:05:41;;;;;;;22.17;11.50;;;;;;;3.45;98.36;101039.84;5079606;28;20099;-84
2022/01/07 08:08:07;;;;;;;21.20;11.25;;;;;;;3.47;98.94;101042.38;5080723;28;20048;-84
2022/01/07 08:10:33;;;;;;;21.17;12.05;;;;;;;3.45;98.55;101033.78;5080191;28;20048;-81
2022/01/07 08:18:15;;;;;;;21.77;12.35;;;;;;;3.49;98.72;101026.69;5085864;28;20498;-85
2022/01/07 08:20:40;;;;;;;21.20;12.63;;;;;;;3.51;98.41;101023.13;5078955;28;20024;-84
2022/01/07 08:23:06;;;;;;;18.10;11.52;;;;;;;3.52;98.77;101019.63;5082823;28;20085;-84
2022/01/07 08:25:32;;;;;;;20.95;11.57;;;;;;;3.56;97.99;101012.53;5080269;28;20500;-84
2022/01/07 08:28:04;;;;;;;20.55;11.60;;;;;;;3.54;98.59;101007.38;5079291;28;20028;-84
2022/01/07 08:30:36;;;;;;;21.80;11.30;;;;;;;3.58;98.53;101013.31;5085548;28;20031;-84
2022/01/07 08:35:46;;;;;;;20.95;11.73;;;;;;;3.56;97.88;101013.38;5090987;28;20043;-81
2022/01/07 08:38:12;;;;;;;21.85;11.40;;;;;;;3.58;98.38;101019.34;5105386;28;20024;-81
2022/01/07 08:40:38;;;;;;;24.10;11.98;;;;;;;3.58;98.08;101024.56;5089255;28;20114;-84
2022/01/07 08:43:03;;;;;;;19.02;11.65;;;;;;;3.57;98.36;101003.81;5105497;28;20119;-84
2022/01/07 08:45:29;;;;;;;16.80;11.38;;;;;;;3.61;97.65;101023.59;5090327;28;20024;-83
2022/01/07 08:47:54;;;;;;;22.05;11.23;;;;;;;3.62;98.41;101018.34;5089780;28;20531;-84
2022/01/07 08:50:22;;;;;;;22.13;11.30;;;;;;;3.62;98.12;101015.75;5088544;28;20028;-84
2022/01/07 08:52:48;;;;;;;21.45;10.80;;;;;;;3.67;98.32;101028.56;5076588;28;20530;-81
2022/01/07 08:55:13;;;;;;;18.25;10.90;;;;;;;3.66;97.97;101032.91;5077186;28;20127;-85
2022/01/07 08:57:39;;;;;;;24.17;11.30;;;;;;;3.66;98.26;101030.31;5084393;28;20085;-82
2022/01/07 09:00:05;;;;;;;17.13;10.77;;;;;;;3.70;97.84;101033.63;5085781;28;20671;-83
2022/01/07 09:02:30;;;;;;;19.10;11.70;;;;;;;3.72;97.83;101037.84;5087706;28;20476;-82
2022/01/07 09:04:58;;;;;;;16.73;11.20;;;;;;;3.71;97.55;101041.38;5088296;28;20065;-82
2022/01/07 09:07:23;;;;;;;19.60;11.15;;;;;;;3.73;97.41;101029.13;5093683;28;20027;-82
2022/01/07 09:09:49;;;;;;;18.02;10.65;;;;;;;3.73;97.73;101034.34;5088639;28;20020;-82
2022/01/07 09:12:14;;;;;;;20.33;11.25;;;;;;;3.76;97.35;101036.81;5086797;28;20722;-82
2022/01/07 09:14:40;;;;;;;16.83;10.38;;;;;;;3.74;97.15;101020.41;5087219;28;20047;-82
2022/01/07 09:17:06;;;;;;;19.83;11.10;;;;;;;3.78;97.83;101026.31;5087925;28;20020;-81
2022/01/07 09:19:32;;;;;;;18.85;10.50;;;;;;;3.79;97.55;101028.00;5088298;28;20040;-82
2022/01/07 09:21:58;;;;;;;17.08;11.23;;;;;;;3.83;97.54;101028.72;5083367;28;20039;-82
2022/01/07 09:24:27;;;;;;;19.08;10.45;;;;;;;3.82;97.37;101037.44;5085596;28;20434;-83
2022/01/07 09:26:53;;;;;;;18.67;10.38;;;;;;;3.83;97.59;101034.78;5080214;28;20481;-82
2022/01/07 09:29:22;;;;;;;21.95;10.63;;;;;;;3.83;96.94;101036.53;5072338;28;20028;-82
2022/01/07 09:31:47;;;;;;;17.88;10.20;;;;;;;3.84;97.04;101020.00;5068249;28;20107;-82
2022/01/07 09:34:13;;;;;;;16.55;10.30;;;;;;;3.88;97.06;101026.75;5070126;28;20028;-82
2022/01/07 09:36:38;;;;;;;16.02;10.18;;;;;;;3.90;97.12;101017.13;5075917;28;20034;-82
2022/01/07 09:39:03;;;;;;;15.23;10.13;;;;;;;3.93;96.94;101019.59;5088883;28;20032;-82
2022/01/07 09:41:29;;;;;;;17.58;9.52;;;;;;;3.94;96.82;101016.94;5077316;28;20032;-82
2022/01/07 09:43:55;;;;;;;18.35;9.70;;;;;;;3.96;96.96;101024.66;5072376;28;20099;-82
2022/01/07 09:46:20;;;;;;;16.60;9.43;;;;;;;3.99;96.71;101029.75;5077265;28;20097;-82
2022/01/07 09:48:46;;;;;;;16.25;9.77;;;;;;;4.02;96.72;101024.44;5075757;28;20028;-82
2022/01/07 09:51:15;;;;;;;16.08;8.98;;;;;;;4.05;96.53;101026.91;5089240;28;20043;-82
2022/01/07 09:53:41;;;;;;;19.13;9.23;;;;;;;4.07;96.22;101006.84;5084798;28;20479;-82
2022/01/07 09:56:07;;;;;;;20.75;9.48;;;;;;;4.13;96.53;101006.56;5078286;28;20024;-82
2022/01/07 09:58:33;;;;;;;15.88;8.63;;;;;;;4.16;96.41;101011.63;5099072;28;20028;-82
2022/01/07 10:01:05;;;;;;;17.00;8.82;;;;;;;4.17;95.98;101017.69;5078210;28;20369;-82
2022/01/07 10:03:40;;;;;;;13.77;8.00;;;;;;;4.20;95.43;101015.78;5068046;28;20040;-82
2022/01/07 10:06:23;;;;;;;15.73;8.18;;;;;;;4.22;95.16;101010.50;5083930;28;20039;-81
2022/01/07 10:08:59;;;;;;;16.75;8.43;;;;;;;4.25;95.11;101011.22;5083058;28;20432;-82
2022/01/07 10:11:25;;;;;;;15.75;8.43;;;;;;;4.26;95.36;101006.84;5087385;28;20423;-82
2022/01/07 10:14:15;;;;;;;11.70;7.93;;;;;;;4.31;94.98;101005.72;5086539;28;20031;-82
2022/01/07 10:16:52;;;;;;;10.57;7.82;;;;;;;4.32;94.50;101002.19;5082152;28;20100;-82
2022/01/07 10:19:49;;;;;;;16.65;7.85;;;;;;;4.31;94.57;100989.25;5096612;28;20028;-82
2022/01/07 10:22:16;;;;;;;15.52;7.68;;;;;;;4.36;94.32;101008.97;5077362;28;20040;-82
2022/01/07 10:25:02;;;;;;;16.00;7.75;;;;;;;4.41;94.22;100995.75;5084996;28;20032;-82
2022/01/07 10:27:39;;;;;;;14.02;7.60;;;;;;;4.39;94.42;101000.16;5088054;28;20484;-82
2022/01/07 10:30:25;;;;;;;17.23;7.53;;;;;;;4.42;93.95;100983.56;5085183;28;20040;-82
2022/01/07 10:32:52;;;;;;;13.32;7.13;;;;;;;4.48;93.88;100983.28;5080226;28;20134;-83
2022/01/07 10:35:19;;;;;;;13.95;7.57;;;;;;;4.47;94.09;100984.19;5078873;28;20031;-83
2022/01/07 10:37:45;;;;;;;10.93;6.57;;;;;;;4.54;93.54;100990.81;5092527;28;20135;-83
2022/01/07 10:40:20;;;;;;;13.68;6.80;;;;;;;4.59;93.40;100988.84;5074126;28;20130;-83
2022/01/07 10:42:45;;;;;;;13.60;7.15;;;;;;;4.61;93.94;100984.38;5080580;28;20098;-81
2022/01/07 10:45:14;;;;;;;10.95;6.30;;;;;;;4.63;93.06;100975.59;5091779;28;20143;-81
2022/01/07 10:47:40;;;;;;;13.45;6.32;;;;;;;4.67;93.57;100979.72;5090536;28;20092;-81
2022/01/07 10:50:16;;;;;;;12.23;6.25;;;;;;;4.71;93.46;100970.84;5088651;28;20468;-82
2022/01/07 10:52:42;;;;;;;12.45;6.95;;;;;;;4.80;93.42;100982.59;5082137;28;20028;-81
2022/01/07 10:55:16;;;;;;;14.15;6.25;;;;;;;4.84;92.83;100965.91;5086226;28;20492;-82
2022/01/07 10:57:44;;;;;;;12.75;5.68;;;;;;;4.86;92.01;100966.69;5079736;28;20021;-82
2022/01/07 11:00:15;;;;;;;14.63;6.75;;;;;;;4.89;92.53;100963.94;5091924;28;20028;-82
2022/01/07 11:02:41;;;;;;;8.80;5.75;;;;;;;4.95;93.01;100971.44;5087690;28;20021;-81
2022/01/07 11:05:07;;;;;;;15.68;6.18;;;;;;;5.00;92.64;100966.84;5075615;28;20028;-81
2022/01/07 11:07:33;;;;;;;14.48;6.15;;;;;;;5.07;93.08;100970.00;5077855;28;20017;-84
2022/01/07 11:09:59;;;;;;;16.65;6.80;;;;;;;5.13;92.66;100966.22;5107186;28;20065;-84
2022/01/07 11:12:25;;;;;;;12.95;6.28;;;;;;;5.15;92.46;100972.22;5092970;28;20017;-84
2022/01/07 11:14:51;;;;;;;17.58;6.15;;;;;;;5.19;91.69;100974.59;5080628;28;20108;-84
2022/01/07 11:17:21;;;;;;;14.48;5.88;;;;;;;5.20;90.95;100971.09;5100992;28;20351;-84
2022/01/07 11:20:01;;;;;;;11.70;5.70;;;;;;;5.24;90.97;100977.00;5076624;28;20028;-85
2022/01/07 11:22:27;;;;;;;14.05;5.70;;;;;;;5.21;91.52;100982.38;5086106;28;20020;-82
2022/01/07 11:24:59;;;;;;;13.43;5.60;;;;;;;5.22;91.85;100971.84;5073994;28;20023;-82
2022/01/07 11:27:27;;;;;;;12.77;5.47;;;;;;;5.17;91.75;100970.38;5070491;28;20032;-82
2022/01/07 11:29:59;;;;;;;9.90;4.93;;;;;;;5.20;91.89;100975.44;5086975;28;20020;-82